Аэропорт: Нахичевань. Нахичевань

ICAO: UBBN

METAR:
2021-07-28 14:30:00
UBBN 281430Z 12016KT 9999 FEW046CB BKN100 30/11 Q1006 R14R/CLRD// NOSIG RMK MT OP QFE680
METAR:
2021-07-28 11:01:00
TAF UBBN 281101Z 2812/2912 12010KT 9999 FEW050CB SCT100 TX35/2812Z TN23/2902Z TEMPO 2812/2818 14016KT -TSRA SCT043CB BKN080